Time;durP1;ratioP1;P1;durP2;ratioP2;P2;SDS_P1;SDS_P2;PMS_P1;PMS_P2;Temp;Humidity;BMP_temperature;BMP_pressure;BME280_temperature;BME280_humidity;BME280_pressure;Samples;Min_cycle;Max_cycle;Signal;HPM_P1;HPM_P2
2023/07/08 00:00:27;;;;;;;8.50;7.50;;;;;;;19.73;100.00;99596.45;104810;1263;71483;-48
2023/07/08 00:02:55;;;;;;;8.90;8.10;;;;;;;19.71;100.00;99593.70;104779;1263;60515;-47
2023/07/08 00:05:22;;;;;;;8.00;7.40;;;;;;;19.69;100.00;99597.50;104814;1257;60448;-48
2023/07/08 00:07:50;;;;;;;8.40;7.60;;;;;;;19.67;100.00;99596.16;104840;1262;73003;-48
2023/07/08 00:10:22;;;;;;;7.80;7.20;;;;;;;19.66;100.00;99596.98;104678;1261;68038;-46
2023/07/08 00:12:51;;;;;;;8.70;7.80;;;;;;;19.66;100.00;99592.30;104870;1263;71321;-44
2023/07/08 00:15:20;;;;;;;7.90;7.20;;;;;;;19.64;100.00;99594.81;104822;1263;61618;-47
2023/07/08 00:17:48;;;;;;;9.70;8.20;;;;;;;19.60;100.00;99595.56;104891;1263;59633;-47
2023/07/08 00:20:39;;;;;;;9.60;8.80;;;;;;;19.56;100.00;99590.56;104816;1257;73693;-48
2023/07/08 00:23:08;;;;;;;7.10;6.70;;;;;;;19.55;100.00;99593.09;104848;1258;68053;-47
2023/07/08 00:25:36;;;;;;;9.20;8.00;;;;;;;19.55;100.00;99591.02;104729;1260;72682;-49
2023/07/08 00:28:17;;;;;;;9.10;8.40;;;;;;;19.55;100.00;99588.92;104833;1257;61701;-48
2023/07/08 00:30:44;;;;;;;8.60;7.80;;;;;;;19.50;100.00;99587.10;104620;1263;61418;-48
2023/07/08 00:33:11;;;;;;;8.70;8.00;;;;;;;19.48;100.00;99586.60;104646;1261;72704;-49
2023/07/08 00:35:43;;;;;;;8.50;7.70;;;;;;;19.47;100.00;99585.98;104776;1263;67623;-47
2023/07/08 00:38:26;;;;;;;10.00;8.00;;;;;;;19.46;100.00;99586.17;105914;1263;72693;-48
2023/07/08 00:40:58;;;;;;;9.00;7.70;;;;;;;19.46;100.00;99586.02;104704;1261;60465;-49
2023/07/08 00:43:45;;;;;;;8.20;7.60;;;;;;;19.45;100.00;99582.77;104916;1258;60639;-48
2023/07/08 00:46:31;;;;;;;7.60;7.00;;;;;;;19.44;100.00;99582.17;104708;1262;73027;-49
2023/07/08 00:49:30;;;;;;;8.60;7.90;;;;;;;19.43;100.00;99581.20;104811;1257;66665;-48
2023/07/08 00:52:18;;;;;;;9.10;8.20;;;;;;;19.42;100.00;99578.14;104860;1256;72626;-47
2023/07/08 00:54:49;;;;;;;9.00;7.80;;;;;;;19.39;100.00;99574.96;104950;1260;61615;-47
2023/07/08 00:57:16;;;;;;;9.30;8.40;;;;;;;19.36;100.00;99571.77;105166;1259;59653;-46
2023/07/08 00:59:47;;;;;;;8.60;7.80;;;;;;;19.33;100.00;99571.48;105020;1259;72164;-48
2023/07/08 01:02:16;;;;;;;9.20;8.40;;;;;;;19.30;100.00;99569.22;105623;1254;67860;-47
2023/07/08 01:05:02;;;;;;;9.10;7.20;;;;;;;19.26;100.00;99571.02;106175;1260;73121;-47
2023/07/08 01:07:33;;;;;;;7.60;7.10;;;;;;;19.21;100.00;99573.61;104946;1254;61694;-48
2023/07/08 01:10:14;;;;;;;10.70;7.40;;;;;;;19.20;100.00;99571.91;105145;1258;59663;-49
2023/07/08 01:12:46;;;;;;;8.70;6.90;;;;;;;19.19;100.00;99573.60;105486;1258;73136;-48
2023/07/08 01:15:14;;;;;;;7.30;6.80;;;;;;;19.18;100.00;99570.61;105188;1257;67536;-48
2023/07/08 01:17:43;;;;;;;9.30;7.90;;;;;;;19.16;100.00;99569.11;105182;1257;71518;-48
2023/07/08 01:20:13;;;;;;;7.60;6.90;;;;;;;19.14;100.00;99563.30;104920;1259;60778;-48
2023/07/08 01:22:41;;;;;;;6.90;6.30;;;;;;;19.11;100.00;99561.58;105177;1258;59999;-48
2023/07/08 01:25:08;;;;;;;12.20;7.80;;;;;;;19.09;100.00;99555.25;105097;1260;73072;-47
2023/07/08 01:27:38;;;;;;;7.50;6.80;;;;;;;19.06;100.00;99555.34;104869;1262;66311;-45
2023/07/08 01:30:06;;;;;;;6.70;6.20;;;;;;;19.03;100.00;99553.81;105441;1254;71829;-47
2023/07/08 01:32:34;;;;;;;8.00;6.80;;;;;;;19.00;100.00;99554.04;104930;1254;59773;-47
2023/07/08 01:35:02;;;;;;;7.10;6.60;;;;;;;18.97;100.00;99552.70;104921;1261;60003;-47
2023/07/08 01:38:02;;;;;;;6.90;6.40;;;;;;;18.93;100.00;99552.48;104858;1254;73061;-47
2023/07/08 01:40:32;;;;;;;6.00;5.40;;;;;;;18.89;100.00;99554.36;104679;1258;66655;-47
2023/07/08 01:43:00;;;;;;;8.30;7.40;;;;;;;18.88;100.00;99554.48;106022;1254;73238;-47
2023/07/08 01:45:34;;;;;;;9.20;7.60;;;;;;;18.86;100.00;99555.02;105353;1260;61669;-49
2023/07/08 01:48:12;;;;;;;;;;;;;;;18.84;100.00;99554.69;105428;1257;58761;-47
2023/07/08 01:50:47;;;;;;;6.60;6.30;;;;;;;18.81;100.00;99558.76;104940;1259;72660;-47
2023/07/08 01:53:16;;;;;;;6.30;5.70;;;;;;;18.78;100.00;99556.11;105690;1259;66682;-47
2023/07/08 01:55:44;;;;;;;6.30;5.70;;;;;;;18.76;100.00;99558.95;108757;1254;72660;-46
2023/07/08 01:58:11;;;;;;;6.50;5.20;;;;;;;18.76;100.00;99557.01;105010;1254;60467;-48
2023/07/08 02:00:38;;;;;;;6.20;5.70;;;;;;;18.75;100.00;99554.17;104930;1254;59763;-47
2023/07/08 02:03:06;;;;;;;8.40;4.90;;;;;;;18.73;100.00;99554.50;104891;1260;73053;-46
2023/07/08 02:05:33;;;;;;;6.20;5.60;;;;;;;18.73;100.00;99549.24;104990;1259;65697;-46
2023/07/08 02:08:01;;;;;;;6.30;5.50;;;;;;;18.72;100.00;99550.04;106217;1255;72716;-46
2023/07/08 02:10:28;;;;;;;12.30;6.70;;;;;;;18.72;100.00;99550.19;104997;1254;62935;-47
2023/07/08 02:12:56;;;;;;;6.00;5.50;;;;;;;18.73;100.00;99549.64;104915;1254;59723;-46
2023/07/08 02:15:24;;;;;;;5.50;5.00;;;;;;;18.71;100.00;99547.30;104864;1254;73061;-47
2023/07/08 02:17:52;;;;;;;6.60;6.10;;;;;;;18.70;100.00;99552.83;104924;1260;66483;-48
2023/07/08 02:20:20;;;;;;;5.80;5.40;;;;;;;18.70;100.00;99556.44;109138;1253;71148;-49
2023/07/08 02:22:48;;;;;;;5.60;5.20;;;;;;;18.70;100.00;99555.37;107742;1255;61685;-49
2023/07/08 02:25:15;;;;;;;6.40;5.10;;;;;;;18.69;100.00;99559.22;104857;1254;59980;-47
2023/07/08 02:27:44;;;;;;;5.60;5.10;;;;;;;18.69;100.00;99563.06;104941;1258;71787;-47
2023/07/08 02:30:11;;;;;;;5.30;4.90;;;;;;;18.68;100.00;99561.50;104913;1258;66623;-48
2023/07/08 02:32:39;;;;;;;6.00;5.50;;;;;;;18.69;100.00;99564.09;104849;1257;71455;-47
2023/07/08 02:35:07;;;;;;;4.70;4.40;;;;;;;18.70;100.00;99565.69;104974;1254;62158;-49
2023/07/08 02:37:35;;;;;;;6.80;5.40;;;;;;;18.71;100.00;99569.77;109095;1253;60563;-49
2023/07/08 02:40:02;;;;;;;7.90;5.60;;;;;;;18.70;100.00;99568.80;109095;1254;71860;-49
2023/07/08 02:42:30;;;;;;;6.80;4.40;;;;;;;18.67;100.00;99568.51;109080;1253;66633;-48
2023/07/08 02:44:57;;;;;;;5.40;4.80;;;;;;;18.65;100.00;99565.16;109137;1254;73334;-49
2023/07/08 02:47:24;;;;;;;5.90;4.70;;;;;;;18.66;100.00;99565.29;107330;1257;63507;-47
2023/07/08 02:49:54;;;;;;;5.00;4.70;;;;;;;18.67;100.00;99563.55;104841;1257;60097;-48
2023/07/08 02:52:21;;;;;;;5.30;4.50;;;;;;;18.66;100.00;99565.48;104970;1254;73267;-48
2023/07/08 02:54:48;;;;;;;6.40;4.90;;;;;;;18.65;100.00;99564.33;104970;1254;69312;-48
2023/07/08 02:57:16;;;;;;;5.40;3.90;;;;;;;18.66;100.00;99565.52;104918;1255;70434;-48
2023/07/08 02:59:43;;;;;;;4.50;4.10;;;;;;;18.66;100.00;99563.63;105002;1254;61639;-47
2023/07/08 03:02:10;;;;;;;5.20;4.50;;;;;;;18.65;100.00;99561.38;104998;1254;60529;-48
2023/07/08 03:04:39;;;;;;;3.90;3.70;;;;;;;18.66;100.00;99558.77;104907;1254;73483;-47
2023/07/08 03:07:11;;;;;;;3.90;3.60;;;;;;;18.66;100.00;99559.63;105085;1254;66393;-48
2023/07/08 03:09:38;;;;;;;4.90;3.50;;;;;;;18.65;100.00;99561.42;105667;1254;71438;-49
2023/07/08 03:12:07;;;;;;;3.50;3.30;;;;;;;18.64;100.00;99555.62;104768;1269;60422;-47
2023/07/08 03:14:35;;;;;;;4.30;4.00;;;;;;;18.64;100.00;99559.07;105138;1254;59982;-48
2023/07/08 03:17:03;;;;;;;3.90;3.70;;;;;;;18.64;100.00;99556.91;105136;1254;71754;-47
2023/07/08 03:19:31;;;;;;;4.30;3.90;;;;;;;18.63;100.00;99555.22;105196;1260;67520;-47
2023/07/08 03:21:58;;;;;;;4.30;3.90;;;;;;;18.62;100.00;99560.21;104856;1258;71653;-49
2023/07/08 03:24:26;;;;;;;4.10;3.70;;;;;;;18.61;100.00;99561.05;104911;1260;60574;-48
2023/07/08 03:26:54;;;;;;;5.70;3.90;;;;;;;18.59;100.00;99559.17;105143;1257;60765;-48
2023/07/08 03:29:23;;;;;;;4.70;4.30;;;;;;;18.59;100.00;99556.46;105045;1254;73826;-47
2023/07/08 03:31:50;;;;;;;3.80;3.50;;;;;;;18.57;100.00;99558.09;104925;1254;67757;-48
2023/07/08 03:34:18;;;;;;;6.30;4.30;;;;;;;18.56;100.00;99558.31;105052;1259;72888;-47
2023/07/08 03:36:50;;;;;;;6.50;3.50;;;;;;;18.56;100.00;99557.95;104824;1254;61620;-49
2023/07/08 03:39:20;;;;;;;3.50;3.30;;;;;;;18.55;100.00;99555.98;105010;1254;60450;-47
2023/07/08 03:41:48;;;;;;;4.00;3.30;;;;;;;18.56;100.00;99553.77;105026;1254;73779;-49
2023/07/08 03:44:15;;;;;;;3.70;3.40;;;;;;;18.55;100.00;99552.20;105626;1254;68520;-47
2023/07/08 03:46:44;;;;;;;3.10;2.80;;;;;;;18.54;100.00;99552.48;104843;1254;73145;-47
2023/07/08 03:49:13;;;;;;;3.30;3.10;;;;;;;18.54;100.00;99549.02;104835;1254;62127;-47
2023/07/08 03:51:40;;;;;;;3.70;3.50;;;;;;;18.56;100.00;99553.21;105027;1254;60485;-47
2023/07/08 03:54:12;;;;;;;3.30;3.00;;;;;;;18.54;100.00;99550.80;104945;1256;73793;-49
2023/07/08 03:56:40;;;;;;;3.60;3.30;;;;;;;18.54;100.00;99547.59;105153;1260;66300;-48
2023/07/08 03:59:07;;;;;;;5.40;2.70;;;;;;;18.53;100.00;99543.05;104807;1260;73050;-48
2023/07/08 04:01:35;;;;;;;2.40;2.20;;;;;;;18.55;100.00;99539.66;105933;1254;61659;-47
2023/07/08 04:04:03;;;;;;;3.00;2.70;;;;;;;18.57;100.00;99539.90;105191;1254;60441;-47
2023/07/08 04:06:34;;;;;;;2.80;2.50;;;;;;;18.59;100.00;99534.32;104748;1254;73799;-48
2023/07/08 04:09:01;;;;;;;3.40;2.70;;;;;;;18.60;100.00;99532.73;104750;1254;67772;-47
2023/07/08 04:11:28;;;;;;;2.70;2.50;;;;;;;18.63;100.00;99533.79;104781;1254;71467;-47
2023/07/08 04:13:56;;;;;;;5.00;2.50;;;;;;;18.65;100.00;99529.98;104818;1259;60400;-48
2023/07/08 04:16:28;;;;;;;2.90;2.60;;;;;;;18.66;100.00;99526.55;104939;1259;60617;-47
2023/07/08 04:18:56;;;;;;;4.80;2.10;;;;;;;18.67;100.00;99531.04;105030;1254;72540;-49
2023/07/08 04:21:24;;;;;;;2.50;1.90;;;;;;;18.67;100.00;99528.48;104762;1254;66801;-48
2023/07/08 04:23:52;;;;;;;2.40;2.20;;;;;;;18.68;100.00;99529.67;105030;1259;72646;-48
2023/07/08 04:26:20;;;;;;;4.60;2.20;;;;;;;18.68;100.00;99527.84;104965;1254;61683;-48
2023/07/08 04:28:47;;;;;;;3.40;1.70;;;;;;;18.70;100.00;99525.76;104932;1256;60460;-48
2023/07/08 04:31:15;;;;;;;4.10;2.00;;;;;;;18.69;100.00;99525.44;104693;1257;72645;-48
2023/07/08 04:33:42;;;;;;;1.80;1.70;;;;;;;18.69;100.00;99523.42;104875;1254;67909;-47
2023/07/08 04:36:12;;;;;;;1.90;1.60;;;;;;;18.71;100.00;99525.94;104809;1258;71431;-47
2023/07/08 04:38:41;;;;;;;2.00;1.90;;;;;;;18.74;100.00;99526.30;105169;1257;60480;-47
2023/07/08 04:41:09;;;;;;;6.50;1.60;;;;;;;18.75;100.00;99526.73;105300;1264;60613;-48
2023/07/08 04:43:36;;;;;;;3.60;1.80;;;;;;;18.76;100.00;99526.23;104924;1260;73797;-49
2023/07/08 04:46:04;;;;;;;3.30;1.70;;;;;;;18.79;100.00;99524.60;105019;1256;65512;-48
2023/07/08 04:48:32;;;;;;;4.30;1.40;;;;;;;18.80;100.00;99521.04;105410;1254;71185;-48
2023/07/08 04:51:00;;;;;;;3.10;1.80;;;;;;;18.81;100.00;99520.50;105076;1258;60836;-48
2023/07/08 04:53:27;;;;;;;3.80;1.40;;;;;;;18.83;100.00;99518.05;104881;1257;60507;-50
2023/07/08 04:55:55;;;;;;;4.30;1.70;;;;;;;18.87;100.00;99519.52;104994;1254;72603;-50
2023/07/08 04:58:22;;;;;;;3.60;2.00;;;;;;;18.92;100.00;99524.20;104956;1261;66305;-48
2023/07/08 05:00:50;;;;;;;3.90;1.70;;;;;;;18.95;100.00;99525.59;104975;1254;73219;-48
2023/07/08 05:03:17;;;;;;;3.40;2.00;;;;;;;18.98;100.00;99524.01;104995;1258;60611;-50
2023/07/08 05:05:44;;;;;;;1.50;1.40;;;;;;;19.00;100.00;99517.14;104863;1254;60562;-47
2023/07/08 05:08:12;;;;;;;2.70;1.90;;;;;;;19.02;100.00;99516.21;104945;1257;73676;-48
2023/07/08 05:10:39;;;;;;;2.80;1.50;;;;;;;19.04;100.00;99517.13;104741;1260;66458;-46
2023/07/08 05:13:06;;;;;;;4.40;1.70;;;;;;;19.05;100.00;99511.44;104924;1257;72679;-47
2023/07/08 05:15:35;;;;;;;3.90;1.80;;;;;;;19.06;100.00;99518.79;104852;1260;61711;-46
2023/07/08 05:18:02;;;;;;;5.50;1.70;;;;;;;19.06;100.00;99512.61;108945;1253;59974;-49
2023/07/08 05:20:32;;;;;;;3.80;1.70;;;;;;;19.05;100.00;99510.44;108792;1254;73833;-48
2023/07/08 05:23:00;;;;;;;3.10;1.70;;;;;;;19.07;100.00;99512.13;108984;1254;68007;-49
2023/07/08 05:25:30;;;;;;;3.00;1.60;;;;;;;19.08;100.00;99515.13;109003;1254;72634;-49
2023/07/08 05:27:57;;;;;;;3.20;1.30;;;;;;;19.09;100.00;99509.79;108978;1254;61294;-49
2023/07/08 05:30:24;;;;;;;3.20;1.70;;;;;;;19.10;100.00;99503.17;109040;1254;58812;-48
2023/07/08 05:32:52;;;;;;;2.50;1.50;;;;;;;19.12;100.00;99499.29;108967;1254;73813;-48
2023/07/08 05:35:20;;;;;;;5.70;1.30;;;;;;;19.15;100.00;99492.84;108973;1254;67485;-49
2023/07/08 05:37:47;;;;;;;5.60;1.40;;;;;;;19.19;100.00;99497.08;109013;1254;72737;-49
2023/07/08 05:40:15;;;;;;;4.00;1.60;;;;;;;19.22;100.00;99498.19;108945;1254;60347;-49
2023/07/08 05:42:42;;;;;;;1.40;1.30;;;;;;;19.24;100.00;99507.51;108946;1254;58766;-48
2023/07/08 05:45:12;;;;;;;2.90;1.70;;;;;;;19.25;100.00;99514.55;108968;1254;73862;-49
2023/07/08 05:47:40;;;;;;;3.60;1.80;;;;;;;19.28;100.00;99516.84;109018;1254;67121;-49
2023/07/08 05:50:07;;;;;;;3.30;1.70;;;;;;;19.31;100.00;99523.69;109004;1255;72077;-48
2023/07/08 05:52:35;;;;;;;1.30;1.20;;;;;;;19.32;100.00;99528.26;107026;1255;62142;-48
2023/07/08 05:55:02;;;;;;;2.40;1.40;;;;;;;19.33;100.00;99527.68;104844;1254;60668;-48
2023/07/08 05:57:29;;;;;;;3.00;1.30;;;;;;;19.32;100.00;99526.88;104891;1254;72062;-48
2023/07/08 05:59:57;;;;;;;1.80;1.10;;;;;;;19.32;100.00;99527.71;104875;1259;66503;-47
2023/07/08 06:02:25;;;;;;;2.30;1.30;;;;;;;19.35;100.00;99518.40;105389;1257;72708;-47
2023/07/08 06:04:53;;;;;;;3.10;1.30;;;;;;;19.37;100.00;99526.80;104876;1256;61654;-50
2023/07/08 06:07:20;;;;;;;4.70;1.50;;;;;;;19.37;100.00;99528.59;104936;1256;60510;-47
2023/07/08 06:09:47;;;;;;;3.20;1.20;;;;;;;19.39;100.00;99531.15;104958;1258;73878;-47
2023/07/08 06:12:15;;;;;;;3.20;1.70;;;;;;;19.41;100.00;99536.21;104938;1254;67933;-47
2023/07/08 06:14:42;;;;;;;3.00;1.50;;;;;;;19.42;100.00;99539.01;104752;1260;71473;-47
2023/07/08 06:17:10;;;;;;;2.40;1.20;;;;;;;19.43;100.00;99539.48;104863;1256;61634;-48
2023/07/08 06:19:37;;;;;;;3.00;1.20;;;;;;;19.45;100.00;99541.85;104955;1254;60501;-46
2023/07/08 06:22:05;;;;;;;3.60;1.50;;;;;;;19.48;100.00;99542.02;104905;1257;73913;-47
2023/07/08 06:24:52;;;;;;;5.70;2.10;;;;;;;19.50;100.00;99534.54;104745;1257;68385;-47
2023/07/08 06:27:20;;;;;;;3.80;1.60;;;;;;;19.51;100.00;99538.48;105022;1257;71239;-47
2023/07/08 06:29:47;;;;;;;1.70;1.20;;;;;;;19.52;100.00;99544.95;104874;1261;60436;-48
2023/07/08 06:32:14;;;;;;;3.30;1.70;;;;;;;19.52;100.00;99546.77;104786;1254;62009;-49
2023/07/08 06:34:41;;;;;;;2.10;1.10;;;;;;;19.52;100.00;99545.83;104993;1257;73824;-48
2023/07/08 06:37:09;;;;;;;5.40;2.20;;;;;;;19.51;100.00;99552.80;104846;1254;66589;-49
2023/07/08 06:39:36;;;;;;;1.90;1.60;;;;;;;19.49;100.00;99555.54;104706;1260;73096;-49
2023/07/08 06:42:06;;;;;;;1.80;1.30;;;;;;;19.48;100.00;99562.04;105152;1254;62126;-48
2023/07/08 06:44:34;;;;;;;1.60;1.10;;;;;;;19.48;100.00;99562.95;104840;1261;61244;-48
2023/07/08 06:47:01;;;;;;;3.50;1.20;;;;;;;19.47;100.00;99565.04;104943;1259;73793;-46
2023/07/08 06:49:28;;;;;;;2.30;1.20;;;;;;;19.47;100.00;99569.23;104930;1254;67673;-49
2023/07/08 06:51:59;;;;;;;1.40;0.90;;;;;;;19.46;100.00;99568.89;104768;1257;71446;-50
2023/07/08 06:54:27;;;;;;;1.10;0.90;;;;;;;19.46;100.00;99571.42;104739;1254;62166;-48
2023/07/08 06:56:55;;;;;;;2.10;1.10;;;;;;;19.45;100.00;99575.15;104835;1254;61123;-48
2023/07/08 06:59:22;;;;;;;3.80;1.00;;;;;;;19.44;100.00;99570.91;104875;1255;72626;-48
2023/07/08 07:01:50;;;;;;;2.90;1.30;;;;;;;19.43;100.00;99569.30;104887;1255;68077;-49
2023/07/08 07:04:17;;;;;;;4.80;1.30;;;;;;;19.44;100.00;99569.95;104887;1259;72648;-49
2023/07/08 07:06:44;;;;;;;3.50;1.30;;;;;;;19.43;100.00;99567.32;104903;1259;61241;-49
2023/07/08 07:09:12;;;;;;;2.00;0.90;;;;;;;19.42;100.00;99562.34;104916;1254;60462;-48
2023/07/08 07:11:39;;;;;;;1.90;1.00;;;;;;;19.41;100.00;99562.38;104974;1255;72547;-50
2023/07/08 07:14:06;;;;;;;2.30;1.10;;;;;;;19.43;100.00;99529.85;104902;1254;66407;-49
2023/07/08 07:16:54;;;;;;;1.50;0.90;;;;;;;19.45;100.00;99534.26;104865;1259;71775;-48
2023/07/08 07:19:35;;;;;;;1.40;1.00;;;;;;;19.40;100.00;99535.35;104955;1254;61757;-49
2023/07/08 07:22:02;;;;;;;1.30;0.80;;;;;;;19.37;100.00;99532.02;105352;1259;60528;-49
2023/07/08 07:24:30;;;;;;;1.70;0.80;;;;;;;19.37;100.00;99533.90;104879;1257;72383;-49
2023/07/08 07:26:58;;;;;;;1.80;0.90;;;;;;;19.35;100.00;99534.05;104990;1259;68078;-49
2023/07/08 07:29:25;;;;;;;2.20;1.10;;;;;;;19.34;100.00;99530.34;104862;1255;72407;-51
2023/07/08 07:31:54;;;;;;;1.20;0.90;;;;;;;19.33;100.00;99532.35;105064;1257;61745;-50
2023/07/08 07:34:22;;;;;;;3.40;1.20;;;;;;;19.32;100.00;99533.54;105069;1257;60489;-51
2023/07/08 07:36:50;;;;;;;3.50;1.10;;;;;;;19.31;100.00;99538.56;105132;1254;72653;-50
2023/07/08 07:39:17;;;;;;;2.60;1.20;;;;;;;19.32;100.00;99539.23;104800;1255;68980;-50
2023/07/08 07:41:44;;;;;;;3.50;1.70;;;;;;;19.35;100.00;99542.22;104885;1254;72340;-50
2023/07/08 07:44:12;;;;;;;2.30;1.60;;;;;;;19.36;100.00;99547.23;104780;1255;61679;-51
2023/07/08 07:46:39;;;;;;;4.80;1.40;;;;;;;19.33;100.00;99546.20;104928;1254;60408;-50
2023/07/08 07:49:06;;;;;;;1.20;1.10;;;;;;;19.30;100.00;99546.30;105255;1259;73753;-49
2023/07/08 07:51:34;;;;;;;2.70;0.90;;;;;;;19.27;100.00;99550.54;104885;1254;65521;-48
2023/07/08 07:54:01;;;;;;;1.00;0.80;;;;;;;19.23;100.00;99552.16;104828;1259;72445;-49
2023/07/08 07:56:28;;;;;;;1.60;0.80;;;;;;;19.22;100.00;99552.62;104806;1256;60606;-49
2023/07/08 07:58:56;;;;;;;1.80;0.70;;;;;;;19.23;100.00;99555.98;104913;1259;59968;-49
2023/07/08 08:01:23;;;;;;;1.30;0.90;;;;;;;19.22;100.00;99557.04;104819;1254;73842;-48
2023/07/08 08:03:51;;;;;;;4.80;0.70;;;;;;;19.18;100.00;99558.27;104890;1254;67989;-48
2023/07/08 08:06:18;;;;;;;2.60;0.80;;;;;;;19.14;100.00;99557.56;105139;1259;72697;-49
2023/07/08 08:08:46;;;;;;;1.50;0.80;;;;;;;19.11;100.00;99562.36;104816;1255;61216;-48
2023/07/08 08:11:14;;;;;;;1.00;0.90;;;;;;;19.09;100.00;99557.02;107077;1254;60547;-48
2023/07/08 08:13:41;;;;;;;2.00;1.10;;;;;;;19.10;100.00;99557.30;104776;1257;73786;-50
2023/07/08 08:16:08;;;;;;;1.80;0.70;;;;;;;19.10;100.00;99554.43;105314;1254;67805;-49
2023/07/08 08:18:36;;;;;;;1.40;0.70;;;;;;;19.08;100.00;99561.48;104892;1260;70460;-49
2023/07/08 08:21:03;;;;;;;4.10;0.80;;;;;;;19.07;100.00;99558.70;104823;1256;62202;-51
2023/07/08 08:23:30;;;;;;;2.40;0.80;;;;;;;19.07;100.00;99558.89;104921;1256;61035;-49
2023/07/08 08:25:58;;;;;;;1.00;0.70;;;;;;;19.06;100.00;99562.38;104933;1256;73782;-50
2023/07/08 08:28:26;;;;;;;0.70;0.60;;;;;;;19.06;100.00;99563.48;108415;1254;67526;-49
2023/07/08 08:30:53;;;;;;;1.20;0.80;;;;;;;19.07;100.00;99560.70;104903;1256;71641;-49
2023/07/08 08:33:21;;;;;;;5.50;0.90;;;;;;;19.06;100.00;99569.98;104849;1258;60642;-52
2023/07/08 08:35:48;;;;;;;0.80;0.70;;;;;;;19.06;100.00;99572.43;104744;1256;60576;-50
2023/07/08 08:38:17;;;;;;;2.30;0.80;;;;;;;19.03;100.00;99572.27;104610;1256;74313;-50
2023/07/08 08:40:44;;;;;;;0.80;0.70;;;;;;;19.02;100.00;99577.71;108912;1254;68051;-51
2023/07/08 08:43:13;;;;;;;3.00;0.70;;;;;;;19.01;100.00;99581.38;108969;1256;71433;-52
2023/07/08 08:46:00;;;;;;;3.40;0.70;;;;;;;19.01;100.00;99586.48;109017;1255;60400;-53
2023/07/08 08:48:27;;;;;;;2.80;0.70;;;;;;;18.99;100.00;99589.59;109012;1254;61854;-50
2023/07/08 08:50:56;;;;;;;3.70;1.10;;;;;;;18.95;100.00;99594.27;108872;1254;72896;-50
2023/07/08 08:53:25;;;;;;;6.70;0.90;;;;;;;18.93;100.00;99604.43;108855;1254;67450;-50
2023/07/08 08:56:16;;;;;;;0.90;0.70;;;;;;;18.91;100.00;99613.73;108709;1254;71586;-50
2023/07/08 08:58:56;;;;;;;0.90;0.60;;;;;;;18.85;100.00;99623.45;108911;1254;61639;-51
2023/07/08 09:01:23;;;;;;;1.40;0.70;;;;;;;18.80;100.00;99625.02;108902;1256;58789;-50
2023/07/08 09:03:57;;;;;;;4.20;0.80;;;;;;;18.75;100.00;99627.77;108864;1254;72745;-49
2023/07/08 09:06:29;;;;;;;0.90;0.70;;;;;;;18.69;100.00;99626.11;105276;1257;68178;-49
2023/07/08 09:08:59;;;;;;;2.30;0.60;;;;;;;18.63;100.00;99625.89;108945;1254;72215;-51
2023/07/08 09:11:39;;;;;;;0.90;0.60;;;;;;;18.59;100.00;99631.16;108250;1257;62066;-49
2023/07/08 09:14:21;;;;;;;1.80;0.70;;;;;;;18.53;100.00;99627.77;106027;1254;60488;-48
2023/07/08 09:16:51;;;;;;;4.60;0.60;;;;;;;18.49;100.00;99626.84;105239;1254;74197;-49
2023/07/08 09:19:29;;;;;;;0.80;0.60;;;;;;;18.46;100.00;99627.30;104854;1254;67125;-50
2023/07/08 09:22:01;;;;;;;3.30;0.80;;;;;;;18.41;100.00;99628.27;104680;1257;74579;-49
2023/07/08 09:24:49;;;;;;;1.10;0.60;;;;;;;18.36;100.00;99626.14;106008;1254;60485;-50
2023/07/08 09:27:16;;;;;;;1.70;0.70;;;;;;;18.33;100.00;99624.73;104679;1256;60616;-48
2023/07/08 09:29:43;;;;;;;1.40;0.60;;;;;;;18.31;100.00;99626.02;104846;1254;75143;-51
2023/07/08 09:32:23;;;;;;;2.60;0.80;;;;;;;18.30;100.00;99626.61;104760;1254;66918;-48
2023/07/08 09:35:04;;;;;;;5.00;0.80;;;;;;;18.31;100.00;99626.55;104992;1257;72429;-50
2023/07/08 09:37:33;;;;;;;2.40;0.60;;;;;;;18.30;100.00;99633.14;106629;1256;61625;-49
2023/07/08 09:40:25;;;;;;;1.20;0.60;;;;;;;18.30;100.00;99635.33;105543;1256;60339;-50
2023/07/08 09:42:57;;;;;;;1.50;0.50;;;;;;;18.28;100.00;99642.41;105010;1257;75794;-49
2023/07/08 09:45:24;;;;;;;2.50;0.50;;;;;;;18.26;100.00;99641.29;105077;1260;69083;-50
2023/07/08 09:47:53;;;;;;;1.10;0.50;;;;;;;18.26;100.00;99640.38;104848;1257;71442;-50
2023/07/08 09:50:28;;;;;;;0.60;0.50;;;;;;;18.25;100.00;99637.58;105174;1254;61670;-49
2023/07/08 09:53:01;;;;;;;4.40;1.00;;;;;;;18.25;100.00;99640.15;104904;1254;60664;-49
2023/07/08 09:55:28;;;;;;;0.70;0.50;;;;;;;18.24;100.00;99638.38;104796;1254;72689;-48
2023/07/08 09:57:58;;;;;;;3.00;0.50;;;;;;;18.21;100.00;99637.51;105069;1253;66617;-48
2023/07/08 10:00:34;;;;;;;2.90;0.60;;;;;;;18.21;100.00;99633.87;104762;1256;72428;-50
2023/07/08 10:03:04;;;;;;;2.70;0.60;;;;;;;18.21;100.00;99631.86;104787;1257;61750;-49
2023/07/08 10:05:36;;;;;;;1.00;0.60;;;;;;;18.20;100.00;99627.11;105045;1259;60387;-49
2023/07/08 10:08:15;;;;;;;1.90;0.60;;;;;;;18.20;100.00;99628.40;105006;1254;72497;-49
2023/07/08 10:10:42;;;;;;;1.60;0.50;;;;;;;18.18;100.00;99629.48;105029;1254;68178;-50
2023/07/08 10:13:17;;;;;;;0.90;0.50;;;;;;;18.15;100.00;99627.49;104775;1254;70688;-48
2023/07/08 10:15:56;;;;;;;5.40;0.50;;;;;;;18.11;100.00;99628.20;104826;1259;60558;-47
2023/07/08 10:18:28;;;;;;;0.70;0.50;;;;;;;18.07;100.00;99630.30;105562;1256;60462;-48
2023/07/08 10:21:04;;;;;;;0.50;0.50;;;;;;;18.07;100.00;99628.35;105136;1254;74363;-49
2023/07/08 10:23:59;;;;;;;0.90;0.60;;;;;;;18.09;100.00;99631.77;104952;1256;66296;-49
2023/07/08 10:26:27;;;;;;;1.60;0.80;;;;;;;18.12;100.00;99632.27;104890;1256;71436;-49
2023/07/08 10:29:24;;;;;;;1.40;0.90;;;;;;;18.15;100.00;99636.70;105058;1259;60391;-50
2023/07/08 10:32:11;;;;;;;4.00;0.60;;;;;;;18.19;100.00;99638.48;105173;1257;60447;-49
2023/07/08 10:34:45;;;;;;;0.90;0.50;;;;;;;18.20;100.00;99643.96;104900;1255;74263;-49
2023/07/08 10:37:26;;;;;;;1.60;0.60;;;;;;;18.21;100.00;99646.61;105332;1259;66753;-49
2023/07/08 10:40:19;;;;;;;1.00;0.40;;;;;;;18.21;100.00;99648.06;104932;1259;71250;-49
2023/07/08 10:43:18;;;;;;;1.10;0.50;;;;;;;18.25;100.00;99651.22;105249;1254;61605;-48
2023/07/08 10:45:54;;;;;;;1.60;0.50;;;;;;;18.27;100.00;99657.95;104547;1266;60657;-50
2023/07/08 10:48:49;;;;;;;8.90;0.60;;;;;;;18.26;100.00;99654.89;105321;1254;73465;-48
2023/07/08 10:51:35;;;;;;;;;;;;;;;18.28;100.00;99654.08;104987;1254;67913;-49
2023/07/08 10:54:21;;;;;;;1.10;0.50;;;;;;;18.29;100.00;99659.23;104869;1256;71437;-50
2023/07/08 10:56:51;;;;;;;2.00;0.60;;;;;;;18.27;100.00;99655.54;104728;1256;60514;-49
2023/07/08 10:59:19;;;;;;;1.10;0.60;;;;;;;18.28;100.00;99652.23;104945;1254;60411;-49
2023/07/08 11:02:10;;;;;;;2.10;0.60;;;;;;;18.29;100.00;99655.75;104882;1254;74312;-49
2023/07/08 11:05:15;;;;;;;1.40;0.60;;;;;;;18.30;100.00;99655.46;104935;1256;68308;-49
2023/07/08 11:07:46;;;;;;;1.10;0.70;;;;;;;18.32;100.00;99660.40;104980;1257;73316;-50
2023/07/08 11:10:35;;;;;;;2.60;0.60;;;;;;;18.32;100.00;99660.74;104943;1254;61627;-49
2023/07/08 11:13:06;;;;;;;4.20;0.70;;;;;;;18.31;100.00;99653.78;105323;1256;60473;-50
2023/07/08 11:15:51;;;;;;;3.20;0.70;;;;;;;18.32;100.00;99651.90;105467;1254;72982;-50
2023/07/08 11:18:35;;;;;;;0.80;0.50;;;;;;;18.31;100.00;99650.31;105020;1253;64733;-49
2023/07/08 11:21:08;;;;;;;9.60;1.00;;;;;;;18.32;100.00;99645.34;105008;1254;73145;-50
2023/07/08 11:23:40;;;;;;;3.90;0.90;;;;;;;18.35;100.00;99648.23;105089;1254;238737;-49
2023/07/08 11:26:57;;;;;;;1.00;0.70;;;;;;;18.38;100.00;99639.16;102027;1291;600385;-47
2023/07/08 11:29:33;;;;;;;3.00;0.90;;;;;;;18.40;100.00;99657.39;104260;1267;61728;-49
2023/07/08 11:32:01;;;;;;;2.60;0.60;;;;;;;18.44;100.00;99659.80;105211;1259;59315;-48
2023/07/08 11:34:28;;;;;;;1.60;0.60;;;;;;;18.45;100.00;99651.30;104810;1254;71110;-48